Time;durP1;ratioP1;P1;durP2;ratioP2;P2;SDS_P1;SDS_P2;PMS_P1;PMS_P2;Temp;Humidity;BMP_temperature;BMP_pressure;BME280_temperature;BME280_humidity;BME280_pressure;Samples;Min_cycle;Max_cycle;Signal;HPM_P1;HPM_P2
2021/09/12 00:00:20;;;;;;;6.43;3.50;;;;;;;;;;4922803;29;20761;-84
2021/09/12 00:02:45;;;;;;;5.53;3.70;;;;;;;;;;4924217;29;20034;-83
2021/09/12 00:05:11;;;;;;;5.87;4.47;;;;;;;;;;4923278;29;20284;-83
2021/09/12 00:07:36;;;;;;;5.72;3.40;;;;;;;;;;4927264;29;20314;-84
2021/09/12 00:10:02;;;;;;;6.00;3.33;;;;;;;;;;4924199;29;20386;-83
2021/09/12 00:12:27;;;;;;;8.75;3.70;;;;;;;;;;4909926;29;20027;-82
2021/09/12 00:14:52;;;;;;;6.53;3.70;;;;;;;;;;4928982;29;20102;-83
2021/09/12 00:17:17;;;;;;;5.60;3.70;;;;;;;;;;4924956;29;20040;-84
2021/09/12 00:19:42;;;;;;;4.93;3.17;;;;;;;;;;4928630;29;20083;-84
2021/09/12 00:22:08;;;;;;;6.93;3.92;;;;;;;;;;4924747;29;20276;-83
2021/09/12 00:24:33;;;;;;;9.63;3.75;;;;;;;;;;4926400;29;20031;-83
2021/09/12 00:26:58;;;;;;;4.30;3.63;;;;;;;;;;4927918;29;20146;-83
2021/09/12 00:29:24;;;;;;;7.03;3.97;;;;;;;;;;4925254;29;20118;-82
2021/09/12 00:31:49;;;;;;;7.53;4.20;;;;;;;;;;4927289;29;20024;-82
2021/09/12 00:34:15;;;;;;;8.35;4.93;;;;;;;;;;4927924;29;20279;-83
2021/09/12 00:36:40;;;;;;;6.22;4.47;;;;;;;;;;4921546;29;20028;-84
2021/09/12 00:39:06;;;;;;;4.47;3.20;;;;;;;;;;4925109;29;20020;-84
2021/09/12 00:41:36;;;;;;;7.32;3.72;;;;;;;;;;4923451;29;20368;-84
2021/09/12 00:44:02;;;;;;;6.05;3.50;;;;;;;;;;4915167;29;20027;-84
2021/09/12 00:46:27;;;;;;;3.97;3.40;;;;;;;;;;4905566;29;20028;-86
2021/09/12 00:48:52;;;;;;;6.18;4.40;;;;;;;;;;4918583;29;20032;-84
2021/09/12 00:51:18;;;;;;;6.00;3.85;;;;;;;;;;4919219;29;20501;-83
2021/09/12 00:53:45;;;;;;;5.53;4.05;;;;;;;;;;4929013;29;20074;-84
2021/09/12 00:56:12;;;;;;;5.93;3.90;;;;;;;;;;4920618;29;20427;-84
2021/09/12 00:58:37;;;;;;;6.00;4.32;;;;;;;;;;4925001;29;20130;-85
2021/09/12 01:01:02;;;;;;;8.43;3.70;;;;;;;;;;4925665;29;20503;-84
2021/09/12 01:03:28;;;;;;;5.68;3.38;;;;;;;;;;4925073;29;20123;-85
2021/09/12 01:05:54;;;;;;;6.88;4.70;;;;;;;;;;4906007;29;20055;-84
2021/09/12 01:08:19;;;;;;;5.68;3.88;;;;;;;;;;4922900;29;20028;-85
2021/09/12 01:10:46;;;;;;;5.72;4.40;;;;;;;;;;4926154;29;20019;-84
2021/09/12 01:13:11;;;;;;;5.95;4.38;;;;;;;;;;4924154;29;20038;-84
2021/09/12 01:15:36;;;;;;;7.50;4.27;;;;;;;;;;4919557;29;20027;-83
2021/09/12 01:18:02;;;;;;;5.88;4.75;;;;;;;;;;4921900;29;20038;-82
2021/09/12 01:20:27;;;;;;;5.88;4.03;;;;;;;;;;4922030;29;20030;-83
2021/09/12 01:22:52;;;;;;;5.55;3.88;;;;;;;;;;4927386;29;20027;-83
2021/09/12 01:25:21;;;;;;;10.57;4.60;;;;;;;;;;4917563;29;20110;-81
2021/09/12 01:27:58;;;;;;;7.13;4.25;;;;;;;;;;4923736;29;20064;-81
2021/09/12 01:30:23;;;;;;;5.30;3.83;;;;;;;;;;4922259;29;20020;-82
2021/09/12 01:32:48;;;;;;;7.70;4.60;;;;;;;;;;4915314;29;20048;-81
2021/09/12 01:35:22;;;;;;;7.78;3.65;;;;;;;;;;4920377;29;20277;-82
2021/09/12 01:37:47;;;;;;;8.57;4.53;;;;;;;;;;4924438;29;20483;-84
2021/09/12 01:40:19;;;;;;;5.55;3.95;;;;;;;;;;4922820;29;20031;-81
2021/09/12 01:42:53;;;;;;;4.70;3.58;;;;;;;;;;4925652;29;20051;-82
2021/09/12 01:45:30;;;;;;;7.00;3.90;;;;;;;;;;4921015;29;20019;-82
2021/09/12 01:48:04;;;;;;;6.22;3.42;;;;;;;;;;4918208;29;20058;-82
2021/09/12 01:50:45;;;;;;;7.72;3.60;;;;;;;;;;4914955;29;20028;-83
2021/09/12 01:53:16;;;;;;;6.50;3.60;;;;;;;;;;4917215;29;20110;-83
2021/09/12 01:55:41;;;;;;;5.53;3.70;;;;;;;;;;4919877;29;20119;-83
2021/09/12 01:58:07;;;;;;;5.82;4.32;;;;;;;;;;4920398;29;20299;-85
2021/09/12 02:00:32;;;;;;;6.10;4.00;;;;;;;;;;4926470;29;20051;-85
2021/09/12 02:02:58;;;;;;;6.32;3.95;;;;;;;;;;4921676;29;20089;-84
2021/09/12 02:05:24;;;;;;;8.40;4.85;;;;;;;;;;4923406;29;20055;-84
2021/09/12 02:07:49;;;;;;;6.05;4.05;;;;;;;;;;4915155;29;20028;-83
2021/09/12 02:10:14;;;;;;;5.90;4.03;;;;;;;;;;4901818;29;20055;-84
2021/09/12 02:12:39;;;;;;;6.67;4.03;;;;;;;;;;4904284;29;20541;-84
2021/09/12 02:15:05;;;;;;;5.70;4.00;;;;;;;;;;4926493;29;20755;-85
2021/09/12 02:17:30;;;;;;;7.70;4.00;;;;;;;;;;4913459;29;20039;-85
2021/09/12 02:19:56;;;;;;;4.10;3.23;;;;;;;;;;4914631;29;20091;-85
2021/09/12 02:22:27;;;;;;;6.13;3.50;;;;;;;;;;4924009;29;20428;-84
2021/09/12 02:24:52;;;;;;;8.65;4.15;;;;;;;;;;4919368;29;20101;-85
2021/09/12 02:27:17;;;;;;;6.97;3.60;;;;;;;;;;4924270;29;20039;-84
2021/09/12 02:29:43;;;;;;;9.47;4.97;;;;;;;;;;4905906;29;20019;-84
2021/09/12 02:32:08;;;;;;;12.55;5.72;;;;;;;;;;4919196;29;20306;-83
2021/09/12 02:34:33;;;;;;;8.87;4.43;;;;;;;;;;4908356;29;20229;-84
2021/09/12 02:36:58;;;;;;;5.95;3.10;;;;;;;;;;4921520;29;20793;-83
2021/09/12 02:39:24;;;;;;;8.93;4.43;;;;;;;;;;4920628;29;20426;-84
2021/09/12 02:41:49;;;;;;;4.37;3.33;;;;;;;;;;4922894;29;20319;-83
2021/09/12 02:44:14;;;;;;;8.50;4.17;;;;;;;;;;4922133;29;20268;-83
2021/09/12 02:46:39;;;;;;;5.63;4.03;;;;;;;;;;4909868;29;20323;-84
2021/09/12 02:49:05;;;;;;;12.60;4.03;;;;;;;;;;4917792;29;20024;-82
2021/09/12 02:51:33;;;;;;;5.82;3.70;;;;;;;;;;4913072;29;20279;-82
2021/09/12 02:53:58;;;;;;;7.10;4.43;;;;;;;;;;4917241;29;20051;-82
2021/09/12 02:56:23;;;;;;;7.20;4.17;;;;;;;;;;4920493;29;20294;-83
2021/09/12 02:58:51;;;;;;;6.05;3.38;;;;;;;;;;4904551;29;20027;-82
2021/09/12 03:01:16;;;;;;;7.63;3.80;;;;;;;;;;4916420;29;20086;-82
2021/09/12 03:03:42;;;;;;;4.63;3.40;;;;;;;;;;4915769;29;20090;-82
2021/09/12 03:06:07;;;;;;;5.87;4.17;;;;;;;;;;4914239;29;20402;-84
2021/09/12 03:08:32;;;;;;;9.80;3.30;;;;;;;;;;4911832;29;20526;-81
2021/09/12 03:10:57;;;;;;;9.77;3.05;;;;;;;;;;4901829;29;20287;-83
2021/09/12 03:13:29;;;;;;;6.07;3.58;;;;;;;;;;4921263;29;20063;-83
2021/09/12 03:15:54;;;;;;;6.10;4.33;;;;;;;;;;4917346;29;20016;-82
2021/09/12 03:18:28;;;;;;;4.65;3.55;;;;;;;;;;4922707;29;20256;-82
2021/09/12 03:20:53;;;;;;;6.80;3.10;;;;;;;;;;4916077;29;20153;-83
2021/09/12 03:23:19;;;;;;;5.10;3.47;;;;;;;;;;4924045;29;20275;-83
2021/09/12 03:25:44;;;;;;;7.87;3.47;;;;;;;;;;4922446;29;20094;-83
2021/09/12 03:28:09;;;;;;;6.07;3.37;;;;;;;;;;4924121;29;20274;-83
2021/09/12 03:30:34;;;;;;;6.23;3.37;;;;;;;;;;4915893;29;20288;-85
2021/09/12 03:33:00;;;;;;;7.65;3.58;;;;;;;;;;4917947;29;20315;-82
2021/09/12 03:35:25;;;;;;;6.00;4.30;;;;;;;;;;4921790;29;20039;-85
2021/09/12 03:37:53;;;;;;;6.32;3.40;;;;;;;;;;4917081;29;20530;-84
2021/09/12 03:40:18;;;;;;;4.63;3.57;;;;;;;;;;4915281;29;20107;-84
2021/09/12 03:42:43;;;;;;;4.40;3.23;;;;;;;;;;4917010;29;20008;-83
2021/09/12 03:45:09;;;;;;;5.10;3.93;;;;;;;;;;4921727;29;20049;-84
2021/09/12 03:47:34;;;;;;;5.95;3.85;;;;;;;;;;4906184;29;20255;-83
2021/09/12 03:49:59;;;;;;;6.23;3.43;;;;;;;;;;4918216;29;20035;-84
2021/09/12 03:52:25;;;;;;;5.77;3.57;;;;;;;;;;4898003;29;20264;-82
2021/09/12 03:54:50;;;;;;;6.68;3.75;;;;;;;;;;4915221;29;20031;-83
2021/09/12 03:57:15;;;;;;;4.67;3.40;;;;;;;;;;4902721;29;20027;-83
2021/09/12 03:59:40;;;;;;;3.50;3.03;;;;;;;;;;4904151;29;20028;-83
2021/09/12 04:02:05;;;;;;;7.57;3.73;;;;;;;;;;4910730;29;20020;-83
2021/09/12 04:04:31;;;;;;;5.53;3.13;;;;;;;;;;4900691;29;20282;-82
2021/09/12 04:06:56;;;;;;;9.60;3.47;;;;;;;;;;4896528;29;20288;-82
2021/09/12 04:09:21;;;;;;;4.30;2.83;;;;;;;;;;4901444;29;20032;-83
2021/09/12 04:11:46;;;;;;;6.27;3.47;;;;;;;;;;4898425;29;20284;-83
2021/09/12 04:14:17;;;;;;;5.53;3.55;;;;;;;;;;4901743;29;20280;-83
2021/09/12 04:16:52;;;;;;;13.00;3.22;;;;;;;;;;4903144;29;20040;-82
2021/09/12 04:19:17;;;;;;;7.83;3.27;;;;;;;;;;4902964;29;20075;-85
2021/09/12 04:21:43;;;;;;;4.05;2.85;;;;;;;;;;4907530;29;20567;-82
2021/09/12 04:24:08;;;;;;;5.97;3.53;;;;;;;;;;4908521;29;20107;-83
2021/09/12 04:26:33;;;;;;;5.40;3.10;;;;;;;;;;4904733;29;20468;-83
2021/09/12 04:29:04;;;;;;;6.25;3.38;;;;;;;;;;4900731;29;20258;-85
2021/09/12 04:31:30;;;;;;;5.07;3.00;;;;;;;;;;4900266;29;20040;-83
2021/09/12 04:33:55;;;;;;;4.95;3.20;;;;;;;;;;4904969;29;20051;-83
2021/09/12 04:36:20;;;;;;;5.80;3.42;;;;;;;;;;4901184;29;20494;-83
2021/09/12 04:38:46;;;;;;;7.45;3.35;;;;;;;;;;4897698;29;21340;-83
2021/09/12 04:41:11;;;;;;;5.32;3.40;;;;;;;;;;4905563;29;20051;-83
2021/09/12 04:43:36;;;;;;;9.13;3.87;;;;;;;;;;4902124;29;20024;-82
2021/09/12 04:46:01;;;;;;;5.05;3.30;;;;;;;;;;4902074;29;20279;-83
2021/09/12 04:48:33;;;;;;;5.80;3.75;;;;;;;;;;4897657;29;20468;-83
2021/09/12 04:50:58;;;;;;;8.23;3.58;;;;;;;;;;4898797;29;20039;-84
2021/09/12 04:53:26;;;;;;;6.10;3.22;;;;;;;;;;4901528;29;20048;-84
2021/09/12 04:56:00;;;;;;;4.40;3.20;;;;;;;;;;4907430;29;20020;-83
2021/09/12 04:58:25;;;;;;;7.03;3.33;;;;;;;;;;4911991;29;20539;-83
2021/09/12 05:00:51;;;;;;;4.47;2.70;;;;;;;;;;4910905;29;20028;-84
2021/09/12 05:03:16;;;;;;;5.00;3.23;;;;;;;;;;4907925;29;20406;-86
2021/09/12 05:05:41;;;;;;;5.13;4.18;;;;;;;;;;4928120;29;20298;-85
2021/09/12 05:08:06;;;;;;;7.15;3.25;;;;;;;;;;4929026;29;20020;-83
2021/09/12 05:10:33;;;;;;;4.60;3.10;;;;;;;;;;4919175;29;20039;-84
2021/09/12 05:12:58;;;;;;;4.77;2.93;;;;;;;;;;4920867;29;20382;-84
2021/09/12 05:15:26;;;;;;;4.65;3.38;;;;;;;;;;4924196;29;20643;-83
2021/09/12 05:17:51;;;;;;;7.30;2.88;;;;;;;;;;4928078;29;20030;-84
2021/09/12 05:20:16;;;;;;;8.80;3.00;;;;;;;;;;4922397;29;20055;-83
2021/09/12 05:22:42;;;;;;;4.38;2.60;;;;;;;;;;4903388;29;20019;-85
2021/09/12 05:25:07;;;;;;;9.77;3.78;;;;;;;;;;4920694;29;20383;-83
2021/09/12 05:27:33;;;;;;;7.57;3.03;;;;;;;;;;4923437;29;20080;-84
2021/09/12 05:29:58;;;;;;;5.38;3.47;;;;;;;;;;4917188;29;20047;-83
2021/09/12 05:32:23;;;;;;;5.22;3.30;;;;;;;;;;4919327;29;20024;-84
2021/09/12 05:34:54;;;;;;;7.20;3.42;;;;;;;;;;4926756;29;20027;-84
2021/09/12 05:37:19;;;;;;;4.30;3.17;;;;;;;;;;4910358;29;20052;-83
2021/09/12 05:39:45;;;;;;;7.22;4.38;;;;;;;;;;4926540;29;20028;-83
2021/09/12 05:42:10;;;;;;;5.50;3.67;;;;;;;;;;4914509;29;21301;-84
2021/09/12 05:44:35;;;;;;;7.33;3.67;;;;;;;;;;4934427;29;20035;-84
2021/09/12 05:47:00;;;;;;;6.25;3.88;;;;;;;;;;4917489;29;20028;-83
2021/09/12 05:49:38;;;;;;;8.15;3.58;;;;;;;;;;4905813;29;20035;-84
2021/09/12 05:52:03;;;;;;;5.73;3.77;;;;;;;;;;4929146;29;20031;-84
2021/09/12 05:54:32;;;;;;;5.97;4.05;;;;;;;;;;4919991;29;20287;-84
2021/09/12 05:56:57;;;;;;;7.18;3.67;;;;;;;;;;4922835;29;20095;-85
2021/09/12 05:59:22;;;;;;;5.68;3.88;;;;;;;;;;4921500;29;20024;-84
2021/09/12 06:01:47;;;;;;;7.18;3.70;;;;;;;;;;4923034;29;20026;-83
2021/09/12 06:04:12;;;;;;;4.67;3.03;;;;;;;;;;4926619;29;20055;-84
2021/09/12 06:06:38;;;;;;;6.10;3.40;;;;;;;;;;4927536;29;20387;-84
2021/09/12 06:09:09;;;;;;;4.00;3.13;;;;;;;;;;4924071;29;20276;-84
2021/09/12 06:11:34;;;;;;;5.53;3.80;;;;;;;;;;4905133;29;20058;-83
2021/09/12 06:13:59;;;;;;;6.10;3.47;;;;;;;;;;4923776;29;20024;-84
2021/09/12 06:16:24;;;;;;;7.63;3.70;;;;;;;;;;4912401;29;20035;-84
2021/09/12 06:18:50;;;;;;;5.35;4.05;;;;;;;;;;4912205;29;20378;-82
2021/09/12 06:21:15;;;;;;;5.80;4.07;;;;;;;;;;4922912;29;20027;-83
2021/09/12 06:23:53;;;;;;;7.32;4.10;;;;;;;;;;4921350;29;20038;-83
2021/09/12 06:26:18;;;;;;;6.37;4.50;;;;;;;;;;4921049;29;20028;-85
2021/09/12 06:28:44;;;;;;;6.97;3.72;;;;;;;;;;4919837;29;20276;-84
2021/09/12 06:31:09;;;;;;;5.80;4.30;;;;;;;;;;4914642;29;20510;-82
2021/09/12 06:33:34;;;;;;;7.25;4.25;;;;;;;;;;4921796;29;20024;-83
2021/09/12 06:36:11;;;;;;;7.38;4.47;;;;;;;;;;4922707;29;20052;-83
2021/09/12 06:38:37;;;;;;;10.55;4.95;;;;;;;;;;4906252;29;20024;-84
2021/09/12 06:41:02;;;;;;;5.68;4.00;;;;;;;;;;4924685;29;20027;-85
2021/09/12 06:43:27;;;;;;;7.70;3.78;;;;;;;;;;4923914;29;20016;-83
2021/09/12 06:45:53;;;;;;;5.07;3.17;;;;;;;;;;4922995;29;20505;-85
2021/09/12 06:48:18;;;;;;;5.53;3.65;;;;;;;;;;4920235;29;20265;-85
2021/09/12 06:50:49;;;;;;;21.27;4.35;;;;;;;;;;4918652;29;20491;-84
2021/09/12 06:53:30;;;;;;;5.68;3.50;;;;;;;;;;4925314;29;20025;-84
2021/09/12 06:55:55;;;;;;;5.75;3.55;;;;;;;;;;4921254;29;20050;-84
2021/09/12 06:58:20;;;;;;;4.25;3.45;;;;;;;;;;4925217;29;20292;-85
2021/09/12 07:00:46;;;;;;;4.80;3.83;;;;;;;;;;4926404;29;20035;-86
2021/09/12 07:03:12;;;;;;;7.45;3.80;;;;;;;;;;4925027;29;20095;-85
2021/09/12 07:05:37;;;;;;;5.57;3.65;;;;;;;;;;4921278;29;20590;-85
2021/09/12 07:08:03;;;;;;;7.93;3.60;;;;;;;;;;4921900;29;20043;-84
2021/09/12 07:10:28;;;;;;;5.50;2.97;;;;;;;;;;4908320;29;20291;-87
2021/09/12 07:12:54;;;;;;;7.30;4.07;;;;;;;;;;4909469;29;20051;-85
2021/09/12 07:15:19;;;;;;;8.38;4.47;;;;;;;;;;4920484;29;20091;-85
2021/09/12 07:17:44;;;;;;;6.57;3.67;;;;;;;;;;4922227;29;20186;-84
2021/09/12 07:20:10;;;;;;;7.20;4.13;;;;;;;;;;4927669;29;20364;-83
2021/09/12 07:22:35;;;;;;;7.45;3.75;;;;;;;;;;4922892;29;20530;-85
2021/09/12 07:25:01;;;;;;;6.32;3.67;;;;;;;;;;4904688;29;20030;-85
2021/09/12 07:27:26;;;;;;;5.18;3.85;;;;;;;;;;4919289;29;20083;-85
2021/09/12 07:29:51;;;;;;;5.82;3.67;;;;;;;;;;4910641;29;20028;-83
2021/09/12 07:32:16;;;;;;;5.53;3.57;;;;;;;;;;4926275;29;20216;-81
2021/09/12 07:34:45;;;;;;;5.28;3.75;;;;;;;;;;4923541;29;20031;-81
2021/09/12 07:37:10;;;;;;;4.07;2.90;;;;;;;;;;4927637;29;20158;-81
2021/09/12 07:39:35;;;;;;;5.90;3.57;;;;;;;;;;4925474;29;20107;-84
2021/09/12 07:42:01;;;;;;;4.80;3.60;;;;;;;;;;4932536;29;20023;-87
2021/09/12 07:44:26;;;;;;;6.60;3.08;;;;;;;;;;4926578;29;20016;-86
2021/09/12 07:46:52;;;;;;;4.97;3.40;;;;;;;;;;4927050;29;20494;-91
2021/09/12 07:49:17;;;;;;;9.20;3.75;;;;;;;;;;4912824;29;20462;-91
2021/09/12 07:51:42;;;;;;;10.52;4.65;;;;;;;;;;4936160;29;20378;-88
2021/09/12 07:54:08;;;;;;;7.90;3.40;;;;;;;;;;4946213;29;20035;-89
2021/09/12 07:56:34;;;;;;;7.60;3.72;;;;;;;;;;4942616;29;20023;-91
2021/09/12 07:58:59;;;;;;;6.38;3.78;;;;;;;;;;4953536;29;20012;-87
2021/09/12 08:01:25;;;;;;;4.63;3.47;;;;;;;;;;4941129;29;20145;-88
2021/09/12 08:03:51;;;;;;;6.05;3.83;;;;;;;;;;4938284;29;20015;-88
2021/09/12 08:06:16;;;;;;;6.32;3.60;;;;;;;;;;4938735;29;20091;-88
2021/09/12 08:08:42;;;;;;;6.93;3.90;;;;;;;;;;4932618;29;20111;-87
2021/09/12 08:11:07;;;;;;;5.55;3.58;;;;;;;;;;4929240;29;20019;-89
2021/09/12 08:13:33;;;;;;;4.90;3.72;;;;;;;;;;4913671;29;20024;-86
2021/09/12 08:15:58;;;;;;;5.75;3.58;;;;;;;;;;4926509;29;20024;-91
2021/09/12 08:18:26;;;;;;;5.55;3.13;;;;;;;;;;4927976;29;20020;-90
2021/09/12 08:20:52;;;;;;;4.03;3.25;;;;;;;;;;4932662;29;20098;-90
2021/09/12 08:23:17;;;;;;;4.88;2.85;;;;;;;;;;4933981;29;20064;-91
2021/09/12 08:25:43;;;;;;;4.68;3.22;;;;;;;;;;4922603;29;21401;-88
2021/09/12 08:28:09;;;;;;;4.68;3.13;;;;;;;;;;4911738;29;20024;-87
2021/09/12 08:30:37;;;;;;;4.95;3.10;;;;;;;;;;4918756;29;20027;-90
2021/09/12 08:33:08;;;;;;;4.78;3.33;;;;;;;;;;4925506;29;20035;-87
2021/09/12 08:35:37;;;;;;;5.15;3.28;;;;;;;;;;4926614;29;20395;-87
2021/09/12 08:38:03;;;;;;;5.70;3.50;;;;;;;;;;4935633;29;20071;-86
2021/09/12 08:40:28;;;;;;;4.53;3.00;;;;;;;;;;4909281;29;20495;-85
2021/09/12 08:42:54;;;;;;;9.70;3.05;;;;;;;;;;4923244;29;20048;-85
2021/09/12 08:45:22;;;;;;;5.00;3.28;;;;;;;;;;4931297;29;20310;-89
2021/09/12 08:47:48;;;;;;;4.25;2.97;;;;;;;;;;4945801;29;20023;-89
2021/09/12 08:50:14;;;;;;;7.78;2.63;;;;;;;;;;4938672;29;20643;-88
2021/09/12 08:52:39;;;;;;;3.33;2.67;;;;;;;;;;4923938;29;20031;-86
2021/09/12 08:55:07;;;;;;;5.95;2.85;;;;;;;;;;4923913;29;20281;-87
2021/09/12 08:57:33;;;;;;;3.72;2.78;;;;;;;;;;4915195;29;20047;-88
2021/09/12 08:59:59;;;;;;;4.65;2.50;;;;;;;;;;4904527;29;20080;-84
2021/09/12 09:02:25;;;;;;;4.38;2.33;;;;;;;;;;4924601;29;20107;-88
2021/09/12 09:04:59;;;;;;;5.35;2.78;;;;;;;;;;4912662;29;20135;-94
2021/09/12 09:07:28;;;;;;;5.88;2.83;;;;;;;;;;4930033;29;20111;-93
2021/09/12 09:09:53;;;;;;;3.42;2.58;;;;;;;;;;4934004;29;20111;-89
2021/09/12 09:12:25;;;;;;;3.20;2.35;;;;;;;;;;4935569;29;20055;-93
2021/09/12 09:15:01;;;;;;;3.63;2.53;;;;;;;;;;4929296;29;20078;-90
2021/09/12 09:17:28;;;;;;;5.15;2.40;;;;;;;;;;4926974;29;20429;-90
2021/09/12 09:19:54;;;;;;;3.72;2.63;;;;;;;;;;4927821;29;20024;-88
2021/09/12 09:22:32;;;;;;;3.33;2.47;;;;;;;;;;4929654;29;20048;-93
2021/09/12 09:25:07;;;;;;;3.83;2.65;;;;;;;;;;4925448;29;20467;-92
2021/09/12 09:27:51;;;;;;;4.43;2.50;;;;;;;;;;4928946;29;20047;-90
2021/09/12 09:30:17;;;;;;;3.97;2.38;;;;;;;;;;4939130;29;20023;-91
2021/09/12 09:32:43;;;;;;;4.85;3.25;;;;;;;;;;4936147;29;20027;-92
2021/09/12 09:35:24;;;;;;;2.65;2.22;;;;;;;;;;4936279;29;20051;-92
2021/09/12 09:37:51;;;;;;;5.53;2.33;;;;;;;;;;4920672;29;20031;-92
2021/09/12 09:40:16;;;;;;;4.03;2.40;;;;;;;;;;4931967;29;20047;-93
2021/09/12 09:42:43;;;;;;;5.00;2.35;;;;;;;;;;4932990;29;20039;-91
2021/09/12 09:45:10;;;;;;;6.40;2.90;;;;;;;;;;4932941;29;20032;-89
2021/09/12 09:47:37;;;;;;;6.20;2.53;;;;;;;;;;4931354;29;20368;-90
2021/09/12 09:50:14;;;;;;;2.53;2.10;;;;;;;;;;4919123;29;20039;-87
2021/09/12 09:52:40;;;;;;;2.10;1.90;;;;;;;;;;4926903;29;20426;-87
2021/09/12 09:55:06;;;;;;;6.47;2.22;;;;;;;;;;4921751;29;20584;-87
2021/09/12 09:57:32;;;;;;;4.10;2.08;;;;;;;;;;4930212;29;20043;-88
2021/09/12 09:59:59;;;;;;;5.18;2.20;;;;;;;;;;4928227;29;20700;-87
2021/09/12 10:02:24;;;;;;;2.97;1.90;;;;;;;;;;4909413;29;20379;-86
2021/09/12 10:04:50;;;;;;;3.13;2.10;;;;;;;;;;4926049;29;20044;-87
2021/09/12 10:07:15;;;;;;;1.93;1.63;;;;;;;;;;4932753;29;20106;-93
2021/09/12 10:09:40;;;;;;;4.28;2.38;;;;;;;;;;4934436;29;20267;-87
2021/09/12 10:12:08;;;;;;;2.65;1.80;;;;;;;;;;4929103;29;20027;-89
2021/09/12 10:14:54;;;;;;;2.60;2.17;;;;;;;;;;4924165;29;20387;-91
2021/09/12 10:17:23;;;;;;;2.35;1.90;;;;;;;;;;4932848;29;20111;-88
2021/09/12 10:19:48;;;;;;;1.88;1.70;;;;;;;;;;4933924;29;20031;-90
2021/09/12 10:22:17;;;;;;;2.88;2.13;;;;;;;;;;4933005;29;20596;-91
2021/09/12 10:25:03;;;;;;;2.05;1.77;;;;;;;;;;4927316;29;20645;-87
2021/09/12 10:27:31;;;;;;;2.80;2.00;;;;;;;;;;4911341;29;20036;-89
2021/09/12 10:29:57;;;;;;;3.65;1.83;;;;;;;;;;4924639;29;20416;-89
2021/09/12 10:32:33;;;;;;;2.80;1.93;;;;;;;;;;4929745;29;20024;-87
2021/09/12 10:35:17;;;;;;;2.63;2.20;;;;;;;;;;4920671;29;20039;-88
2021/09/12 10:37:57;;;;;;;1.90;1.60;;;;;;;;;;4930192;29;20039;-87
2021/09/12 10:40:23;;;;;;;3.38;1.80;;;;;;;;;;4934146;29;20024;-88
2021/09/12 10:42:48;;;;;;;3.97;1.65;;;;;;;;;;4921657;29;20036;-90
2021/09/12 10:45:17;;;;;;;4.28;1.80;;;;;;;;;;4924247;29;20497;-86
2021/09/12 10:47:42;;;;;;;3.55;1.75;;;;;;;;;;4918122;29;20090;-88
2021/09/12 10:50:27;;;;;;;5.37;2.60;;;;;;;;;;4919760;29;20374;-89
2021/09/12 10:52:56;;;;;;;4.18;2.35;;;;;;;;;;4925297;29;20264;-88
2021/09/12 10:55:21;;;;;;;5.57;2.20;;;;;;;;;;4925090;29;20362;-91
2021/09/12 10:57:46;;;;;;;4.03;2.57;;;;;;;;;;4926313;29;20028;-89
2021/09/12 11:00:15;;;;;;;2.90;2.03;;;;;;;;;;4911481;29;20323;-88
2021/09/12 11:02:46;;;;;;;3.50;2.40;;;;;;;;;;4908380;29;20511;-89
2021/09/12 11:05:24;;;;;;;2.60;2.40;;;;;;;;;;4920876;29;20500;-86
2021/09/12 11:07:53;;;;;;;4.18;2.30;;;;;;;;;;4911897;29;20527;-87
2021/09/12 11:10:37;;;;;;;2.75;1.85;;;;;;;;;;4926760;29;20434;-89
2021/09/12 11:13:02;;;;;;;2.65;2.38;;;;;;;;;;4927524;29;20364;-89
2021/09/12 11:15:28;;;;;;;2.53;1.90;;;;;;;;;;4926310;29;20018;-87
2021/09/12 11:17:54;;;;;;;4.95;2.67;;;;;;;;;;4910717;29;20272;-88
2021/09/12 11:20:19;;;;;;;3.10;2.10;;;;;;;;;;4921522;29;20039;-86
2021/09/12 11:22:51;;;;;;;5.03;3.38;;;;;;;;;;4918219;29;20032;-87
2021/09/12 11:25:20;;;;;;;3.50;2.88;;;;;;;;;;4920841;29;20371;-88
2021/09/12 11:27:45;;;;;;;;;;;;;;;;;;4927764;29;20031;-87
2021/09/12 11:30:10;;;;;;;3.83;2.37;;;;;;;;;;4926519;29;19915;-88
2021/09/12 11:32:36;;;;;;;5.75;3.00;;;;;;;;;;4924041;29;20038;-89
2021/09/12 11:35:01;;;;;;;4.45;3.15;;;;;;;;;;4923291;29;20487;-86
2021/09/12 11:37:28;;;;;;;2.83;2.20;;;;;;;;;;4918425;29;20035;-85
2021/09/12 11:39:55;;;;;;;2.42;1.90;;;;;;;;;;4929983;29;20047;-85
2021/09/12 11:42:21;;;;;;;8.43;3.83;;;;;;;;;;4923206;29;20020;-87
2021/09/12 11:44:47;;;;;;;5.50;2.65;;;;;;;;;;4924869;29;20546;-84
2021/09/12 11:47:23;;;;;;;2.63;2.10;;;;;;;;;;4922957;29;20028;-84
2021/09/12 11:50:02;;;;;;;2.95;2.10;;;;;;;;;;4921071;29;20114;-83
2021/09/12 11:52:30;;;;;;;3.20;2.03;;;;;;;;;;4912932;29;20028;-87
2021/09/12 11:54:55;;;;;;;3.57;2.43;;;;;;;;;;4920196;29;20447;-81
2021/09/12 11:57:21;;;;;;;2.73;2.00;;;;;;;;;;4918386;29;20307;-87
2021/09/12 11:59:47;;;;;;;4.47;2.10;;;;;;;;;;4925462;29;20035;-86
2021/09/12 12:02:19;;;;;;;6.07;2.42;;;;;;;;;;4928529;29;20102;-88
2021/09/12 12:04:45;;;;;;;2.90;2.08;;;;;;;;;;4926089;29;20049;-87
2021/09/12 12:07:10;;;;;;;5.07;2.63;;;;;;;;;;4908265;29;20038;-88
2021/09/12 12:09:39;;;;;;;4.13;2.42;;;;;;;;;;4925567;29;20657;-89
2021/09/12 12:12:06;;;;;;;2.00;1.80;;;;;;;;;;4927194;29;20028;-90
2021/09/12 12:14:32;;;;;;;2.95;2.22;;;;;;;;;;4921448;29;20361;-87
2021/09/12 12:17:01;;;;;;;3.45;2.42;;;;;;;;;;4915227;29;20039;-84
2021/09/12 12:19:31;;;;;;;3.58;2.35;;;;;;;;;;4921252;29;20637;-85
2021/09/12 12:22:02;;;;;;;4.55;2.10;;;;;;;;;;4917642;29;20487;-85
2021/09/12 12:24:33;;;;;;;5.75;2.42;;;;;;;;;;4924347;29;20579;-85
2021/09/12 12:27:05;;;;;;;2.45;2.20;;;;;;;;;;4924303;29;20356;-89
2021/09/12 12:29:31;;;;;;;5.10;2.40;;;;;;;;;;4918932;29;20032;-86
2021/09/12 12:31:58;;;;;;;2.30;1.90;;;;;;;;;;4927903;29;20604;-87
2021/09/12 12:34:36;;;;;;;3.03;2.05;;;;;;;;;;4927239;29;20386;-87
2021/09/12 12:37:02;;;;;;;3.08;2.05;;;;;;;;;;4919847;29;20959;-85
2021/09/12 12:39:27;;;;;;;2.42;2.00;;;;;;;;;;4920802;29;20028;-86
2021/09/12 12:41:53;;;;;;;4.10;2.38;;;;;;;;;;4923108;29;20378;-87
2021/09/12 12:44:22;;;;;;;4.20;2.13;;;;;;;;;;4923145;29;20024;-87
2021/09/12 12:46:47;;;;;;;4.10;2.47;;;;;;;;;;4925887;29;20168;-86
2021/09/12 12:49:21;;;;;;;8.48;3.47;;;;;;;;;;4919683;29;20119;-82
2021/09/12 12:51:59;;;;;;;7.80;2.70;;;;;;;;;;4923843;29;20031;-84
2021/09/12 12:54:30;;;;;;;6.47;2.70;;;;;;;;;;4920605;29;20491;-84
2021/09/12 12:56:55;;;;;;;6.18;2.63;;;;;;;;;;4923159;29;20541;-86
2021/09/12 12:59:20;;;;;;;4.27;2.33;;;;;;;;;;4921662;29;20024;-85
2021/09/12 13:01:45;;;;;;;5.20;2.53;;;;;;;;;;4922607;29;20038;-88
2021/09/12 13:04:10;;;;;;;6.47;3.20;;;;;;;;;;4925931;29;20044;-84
2021/09/12 13:06:37;;;;;;;7.63;3.53;;;;;;;;;;4925938;29;20275;-86
2021/09/12 13:09:02;;;;;;;5.63;2.30;;;;;;;;;;4919243;29;20051;-84
2021/09/12 13:11:28;;;;;;;8.75;3.67;;;;;;;;;;4925536;29;20119;-85
2021/09/12 13:13:53;;;;;;;5.20;2.38;;;;;;;;;;4931156;29;20032;-86
2021/09/12 13:16:19;;;;;;;5.63;2.70;;;;;;;;;;4920972;29;20011;-87
2021/09/12 13:18:44;;;;;;;2.42;1.90;;;;;;;;;;4908433;29;20030;-86
2021/09/12 13:21:09;;;;;;;5.63;2.30;;;;;;;;;;4923849;29;20107;-83
2021/09/12 13:23:34;;;;;;;4.30;2.30;;;;;;;;;;4926361;29;20047;-87
2021/09/12 13:26:00;;;;;;;9.47;3.50;;;;;;;;;;4924181;29;20032;-83
2021/09/12 13:28:25;;;;;;;6.27;2.83;;;;;;;;;;4930688;29;20031;-83
2021/09/12 13:30:51;;;;;;;5.47;2.67;;;;;;;;;;4911371;29;20066;-81
2021/09/12 13:33:16;;;;;;;3.97;2.30;;;;;;;;;;4926961;29;20541;-87
2021/09/12 13:35:42;;;;;;;7.43;3.33;;;;;;;;;;4916955;29;20123;-83
2021/09/12 13:38:07;;;;;;;5.82;2.83;;;;;;;;;;4922750;29;20033;-88
2021/09/12 13:40:33;;;;;;;3.15;2.72;;;;;;;;;;4924575;29;20071;-89
2021/09/12 13:42:59;;;;;;;4.95;2.78;;;;;;;;;;4931371;29;20170;-91
2021/09/12 13:45:25;;;;;;;6.28;2.58;;;;;;;;;;4933164;29;20016;-89
2021/09/12 13:47:50;;;;;;;2.42;1.98;;;;;;;;;;4928150;29;20042;-90
2021/09/12 13:50:16;;;;;;;7.68;3.05;;;;;;;;;;4934276;29;20016;-89
2021/09/12 13:52:41;;;;;;;4.80;2.30;;;;;;;;;;4915700;29;20035;-90
2021/09/12 13:55:07;;;;;;;5.32;3.03;;;;;;;;;;4927012;29;20034;-89
2021/09/12 13:57:32;;;;;;;4.25;2.50;;;;;;;;;;4930510;29;20032;-90
2021/09/12 13:59:57;;;;;;;2.17;1.90;;;;;;;;;;4914583;29;20362;-89
2021/09/12 14:02:23;;;;;;;2.50;2.10;;;;;;;;;;4929151;29;20467;-92
2021/09/12 14:04:48;;;;;;;4.72;2.55;;;;;;;;;;4916508;29;20072;-87
2021/09/12 14:07:13;;;;;;;2.97;2.43;;;;;;;;;;4930753;29;20042;-85
2021/09/12 14:09:39;;;;;;;4.07;2.00;;;;;;;;;;4901774;29;20275;-89
2021/09/12 14:12:06;;;;;;;6.25;2.47;;;;;;;;;;4931274;29;20078;-90
2021/09/12 14:14:31;;;;;;;3.72;2.88;;;;;;;;;;4922728;29;20568;-89
2021/09/12 14:16:57;;;;;;;7.28;2.33;;;;;;;;;;4926180;29;20023;-88
2021/09/12 14:19:22;;;;;;;5.43;2.25;;;;;;;;;;4922086;29;20019;-87
2021/09/12 14:21:47;;;;;;;4.13;2.10;;;;;;;;;;4922854;29;20159;-87
2021/09/12 14:24:12;;;;;;;2.75;2.10;;;;;;;;;;4907679;29;20032;-86
2021/09/12 14:26:39;;;;;;;3.43;2.67;;;;;;;;;;4926547;29;20163;-85
2021/09/12 14:29:05;;;;;;;3.45;2.20;;;;;;;;;;4930177;29;20059;-86
2021/09/12 14:31:30;;;;;;;4.38;2.40;;;;;;;;;;4928893;29;20486;-86
2021/09/12 14:33:55;;;;;;;3.97;2.30;;;;;;;;;;4930393;29;20490;-86
2021/09/12 14:36:21;;;;;;;4.88;2.95;;;;;;;;;;4924136;29;20057;-87
2021/09/12 14:38:46;;;;;;;8.53;2.70;;;;;;;;;;4930220;29;20024;-86
2021/09/12 14:41:11;;;;;;;4.38;2.50;;;;;;;;;;4928177;29;20027;-83